Time,TemperatureF,DewpointF,PressureIn,WindDirection,WindDirectionDegrees,WindSpeedMPH,WindSpeedGustMPH,Humidity,HourlyPrecipIn,Conditions,Clouds,dailyrainin,SoftwareType,DateUTC
2014-01-03 00:01:00,50.0,35.0,30.15,West,278,0.0,1.0,57,0.00,,,0.00,weatherlink.com 1.10,2014-01-03 08:01:00,
2014-01-03 00:16:00,50.5,35.0,30.15,West,278,0.0,0.0,55,0.00,,,0.00,weatherlink.com 1.10,2014-01-03 08:16:00,
2014-01-03 00:31:00,51.0,35.0,30.15,West,278,0.0,0.0,54,0.00,,,0.00,weatherlink.com 1.10,2014-01-03 08:31:00,
2014-01-03 00:46:00,50.1,34.0,30.15,West,278,0.0,0.0,55,0.00,,,0.00,weatherlink.com 1.10,2014-01-03 08:46:00,
2014-01-03 01:01:00,49.3,34.0,30.14,West,278,0.0,0.0,56,0.00,,,0.00,weatherlink.com 1.10,2014-01-03 09:01:00,
2014-01-03 01:16:00,50.8,34.0,30.14,NNW,344,0.0,0.0,53,0.00,,,0.00,weatherlink.com 1.10,2014-01-03 09:16:00,
2014-01-03 01:31:00,49.8,34.0,30.14,ESE,113,0.0,0.0,54,0.00,,,0.00,weatherlink.com 1.10,2014-01-03 09:31:00,
2014-01-03 01:46:00,49.4,34.0,30.14,ESE,113,0.0,0.0,55,0.00,,,0.00,weatherlink.com 1.10,2014-01-03 09:46:00,
2014-01-03 02:01:00,49.3,34.0,30.14,NNE,28,0.0,1.0,55,0.00,,,0.00,weatherlink.com 1.10,2014-01-03 10:01:00,
2014-01-03 02:16:00,49.5,33.0,30.14,NE,39,0.0,0.0,54,0.00,,,0.00,weatherlink.com 1.10,2014-01-03 10:16:00,
2014-01-03 02:31:00,49.5,33.0,30.14,ENE,64,0.0,0.0,54,0.00,,,0.00,weatherlink.com 1.10,2014-01-03 10:31:00,
2014-01-03 02:46:00,48.9,33.0,30.15,South,187,0.0,2.0,55,0.00,,,0.00,weatherlink.com 1.10,2014-01-03 10:46:00,
2014-01-03 03:01:00,48.7,33.0,30.14,East,90,0.0,1.0,55,0.00,,,0.00,weatherlink.com 1.10,2014-01-03 11:01:00,
2014-01-03 03:16:00,48.2,33.0,30.14,ENE,68,0.0,0.0,55,0.00,,,0.00,weatherlink.com 1.10,2014-01-03 11:16:00,
2014-01-03 03:31:00,48.0,32.0,30.13,ENE,70,0.0,0.0,55,0.00,,,0.00,weatherlink.com 1.10,2014-01-03 11:31:00,
2014-01-03 03:46:00,47.6,32.0,30.14,ENE,70,0.0,0.0,55,0.00,,,0.00,weatherlink.com 1.10,2014-01-03 11:46:00,
2014-01-03 04:02:00,47.2,32.0,30.14,ENE,70,0.0,0.0,56,0.00,,,0.00,weatherlink.com 1.10,2014-01-03 12:02:00,
2014-01-03 04:17:00,47.2,32.0,30.14,ENE,69,0.0,0.0,56,0.00,,,0.00,weatherlink.com 1.10,2014-01-03 12:17:00,
2014-01-03 04:32:00,46.7,32.0,30.14,ENE,64,0.0,0.0,57,0.00,,,0.00,weatherlink.com 1.10,2014-01-03 12:32:00,
2014-01-03 04:47:00,47.5,32.0,30.14,ENE,64,0.0,0.0,55,0.00,,,0.00,weatherlink.com 1.10,2014-01-03 12:47:00,
2014-01-03 05:02:00,47.8,32.0,30.14,ENE,64,0.0,0.0,54,0.00,,,0.00,weatherlink.com 1.10,2014-01-03 13:02:00,
2014-01-03 05:17:00,47.9,32.0,30.14,ENE,65,0.0,0.0,54,0.00,,,0.00,weatherlink.com 1.10,2014-01-03 13:17:00,
2014-01-03 05:32:00,47.0,31.0,30.14,ENE,59,0.0,0.0,55,0.00,,,0.00,weatherlink.com 1.10,2014-01-03 13:32:00,
2014-01-03 05:47:00,47.2,32.0,30.14,NNE,16,0.0,1.0,55,0.00,,,0.00,weatherlink.com 1.10,2014-01-03 13:47:00,
2014-01-03 06:02:00,48.1,31.0,30.14,NE,44,1.0,1.0,53,0.00,,,0.00,weatherlink.com 1.10,2014-01-03 14:02:00,
2014-01-03 06:17:00,47.6,31.0,30.14,NE,43,0.0,0.0,53,0.00,,,0.00,weatherlink.com 1.10,2014-01-03 14:17:00,
2014-01-03 06:32:00,48.5,31.0,30.14,ENE,72,0.0,1.0,52,0.00,,,0.00,weatherlink.com 1.10,2014-01-03 14:32:00,
2014-01-03 06:47:00,48.6,31.0,30.14,ESE,102,0.0,1.0,52,0.00,,,0.00,weatherlink.com 1.10,2014-01-03 14:47:00,
2014-01-03 07:02:00,48.4,31.0,30.14,ESE,104,0.0,1.0,52,0.00,,,0.00,weatherlink.com 1.10,2014-01-03 15:02:00,
2014-01-03 07:17:00,48.7,31.0,30.14,NE,48,0.0,3.0,51,0.00,,,0.00,weatherlink.com 1.10,2014-01-03 15:17:00,
2014-01-03 07:32:00,49.5,31.0,30.14,NE,37,1.0,3.0,49,0.00,,,0.00,weatherlink.com 1.10,2014-01-03 15:32:00,
2014-01-03 07:47:00,49.7,31.0,30.14,East,84,0.0,2.0,49,0.00,,,0.00,weatherlink.com 1.10,2014-01-03 15:47:00,
2014-01-03 08:02:00,49.5,31.0,30.14,ESE,103,0.0,1.0,50,0.00,,,0.00,weatherlink.com 1.10,2014-01-03 16:02:00,
2014-01-03 08:17:00,49.1,31.0,30.14,ESE,111,0.0,1.0,51,0.00,,,0.00,weatherlink.com 1.10,2014-01-03 16:17:00,
2014-01-03 08:32:00,49.4,32.0,30.14,ESE,106,1.0,2.0,51,0.00,,,0.00,weatherlink.com 1.10,2014-01-03 16:32:00,
2014-01-03 08:47:00,50.0,32.0,30.14,East,96,0.0,1.0,50,0.00,,,0.00,weatherlink.com 1.10,2014-01-03 16:47:00,
2014-01-03 09:02:00,51.6,32.0,30.14,East,86,1.0,1.0,48,0.00,,,0.00,weatherlink.com 1.10,2014-01-03 17:02:00,
2014-01-03 09:17:00,52.7,32.0,30.14,East,97,0.0,1.0,45,0.00,,,0.00,weatherlink.com 1.10,2014-01-03 17:17:00,
2014-01-03 09:32:00,55.0,32.0,30.14,ESE,103,0.0,1.0,42,0.00,,,0.00,weatherlink.com 1.10,2014-01-03 17:32:00,
2014-01-03 09:47:00,55.9,35.0,30.14,East,88,0.0,1.0,45,0.00,,,0.00,weatherlink.com 1.10,2014-01-03 17:47:00,
2014-01-03 10:02:00,56.1,34.0,30.14,East,88,0.0,0.0,44,0.00,,,0.00,weatherlink.com 1.10,2014-01-03 18:02:00,
2014-01-03 10:17:00,58.1,33.0,30.13,East,88,0.0,1.0,39,0.00,,,0.00,weatherlink.com 1.10,2014-01-03 18:17:00,
2014-01-03 10:32:00,58.4,36.0,30.13,East,89,0.0,1.0,44,0.00,,,0.00,weatherlink.com 1.10,2014-01-03 18:32:00,
2014-01-03 10:47:00,57.7,36.0,30.13,East,99,0.0,1.0,44,0.00,,,0.00,weatherlink.com 1.10,2014-01-03 18:47:00,
2014-01-03 11:02:00,58.3,36.0,30.13,East,98,0.0,1.0,44,0.00,,,0.00,weatherlink.com 1.10,2014-01-03 19:02:00,
2014-01-03 11:17:00,58.4,36.0,30.12,ESE,110,0.0,1.0,43,0.00,,,0.00,weatherlink.com 1.10,2014-01-03 19:17:00,
2014-01-03 11:32:00,59.0,35.0,30.11,ENE,75,2.0,2.0,41,0.00,,,0.00,weatherlink.com 1.10,2014-01-03 19:32:00,
2014-01-03 11:47:00,60.1,36.0,30.10,East,95,0.0,1.0,41,0.00,,,0.00,weatherlink.com 1.10,2014-01-03 19:47:00,
2014-01-03 12:02:00,62.2,36.0,30.09,East,87,0.0,1.0,38,0.00,,,0.00,weatherlink.com 1.10,2014-01-03 20:02:00,
2014-01-03 12:17:00,62.9,35.0,30.09,ESE,110,0.0,2.0,36,0.00,,,0.00,weatherlink.com 1.10,2014-01-03 20:17:00,
2014-01-03 12:33:00,63.9,34.0,30.08,East,101,0.0,0.0,33,0.00,,,0.00,weatherlink.com 1.10,2014-01-03 20:33:00,
2014-01-03 12:48:00,64.4,33.0,30.07,WNW,284,2.0,3.0,31,0.00,,,0.00,weatherlink.com 1.10,2014-01-03 20:48:00,
2014-01-03 13:03:00,66.0,34.0,30.06,SSW,198,0.0,2.0,31,0.00,,,0.00,weatherlink.com 1.10,2014-01-03 21:03:00,
2014-01-03 13:18:00,66.2,35.0,30.06,SW,219,0.0,2.0,31,0.00,,,0.00,weatherlink.com 1.10,2014-01-03 21:18:00,
2014-01-03 13:33:00,67.4,37.0,30.05,WSW,245,0.0,1.0,33,0.00,,,0.00,weatherlink.com 1.10,2014-01-03 21:33:00,
2014-01-03 13:48:00,67.8,38.0,30.05,WSW,249,0.0,2.0,34,0.00,,,0.00,weatherlink.com 1.10,2014-01-03 21:48:00,
2014-01-03 14:03:00,67.5,38.0,30.04,West,271,1.0,3.0,34,0.00,,,0.00,weatherlink.com 1.10,2014-01-03 22:03:00,
2014-01-03 14:18:00,67.3,38.0,30.04,West,262,0.0,2.0,34,0.00,,,0.00,weatherlink.com 1.10,2014-01-03 22:18:00,
2014-01-03 14:33:00,67.3,38.0,30.04,WSW,256,1.0,4.0,34,0.00,,,0.00,weatherlink.com 1.10,2014-01-03 22:33:00,
2014-01-03 14:48:00,67.3,39.0,30.04,WSW,245,0.0,2.0,35,0.00,,,0.00,weatherlink.com 1.10,2014-01-03 22:48:00,
2014-01-03 15:03:00,66.5,38.0,30.03,WSW,252,0.0,3.0,35,0.00,,,0.00,weatherlink.com 1.10,2014-01-03 23:03:00,
2014-01-03 15:18:00,66.5,39.0,30.03,WSW,255,1.0,2.0,37,0.00,,,0.00,weatherlink.com 1.10,2014-01-03 23:18:00,
2014-01-03 15:33:00,65.0,39.0,30.03,West,264,1.0,5.0,38,0.00,,,0.00,weatherlink.com 1.10,2014-01-03 23:33:00,
2014-01-03 15:48:00,63.8,39.0,30.03,WSW,251,2.0,3.0,40,0.00,,,0.00,weatherlink.com 1.10,2014-01-03 23:48:00,
2014-01-03 16:03:00,62.4,39.0,30.03,West,262,1.0,3.0,43,0.00,,,0.00,weatherlink.com 1.10,2014-01-04 00:03:00,
2014-01-03 16:18:00,61.0,40.0,30.02,WSW,240,0.0,1.0,46,0.00,,,0.00,weatherlink.com 1.10,2014-01-04 00:18:00,
2014-01-03 16:33:00,59.3,39.0,30.03,WSW,240,0.0,0.0,48,0.00,,,0.00,weatherlink.com 1.10,2014-01-04 00:33:00,
2014-01-03 16:48:00,58.1,40.0,30.02,SW,233,1.0,1.0,51,0.00,,,0.00,weatherlink.com 1.10,2014-01-04 00:48:00,
2014-01-03 17:03:00,57.2,39.0,30.02,SW,233,0.0,1.0,52,0.00,,,0.00,weatherlink.com 1.10,2014-01-04 01:03:00,
2014-01-03 17:18:00,56.5,39.0,30.03,SW,233,0.0,0.0,53,0.00,,,0.00,weatherlink.com 1.10,2014-01-04 01:18:00,
2014-01-03 17:33:00,56.1,39.0,30.03,SW,233,0.0,0.0,54,0.00,,,0.00,weatherlink.com 1.10,2014-01-04 01:33:00,
2014-01-03 17:48:00,54.8,39.0,30.03,SW,233,0.0,0.0,55,0.00,,,0.00,weatherlink.com 1.10,2014-01-04 01:48:00,
2014-01-03 18:03:00,52.9,39.0,30.04,SW,233,0.0,0.0,59,0.00,,,0.00,weatherlink.com 1.10,2014-01-04 02:03:00,
2014-01-03 18:18:00,51.9,38.0,30.04,SW,233,0.0,0.0,60,0.00,,,0.00,weatherlink.com 1.10,2014-01-04 02:18:00,
2014-01-03 18:33:00,51.7,39.0,30.04,SW,233,0.0,0.0,62,0.00,,,0.00,weatherlink.com 1.10,2014-01-04 02:33:00,
2014-01-03 18:48:00,51.6,39.0,30.04,SW,233,0.0,0.0,62,0.00,,,0.00,weatherlink.com 1.10,2014-01-04 02:48:00,
2014-01-03 19:03:00,51.7,39.0,30.04,SW,232,0.0,0.0,62,0.00,,,0.00,weatherlink.com 1.10,2014-01-04 03:03:00,
2014-01-03 19:18:00,51.2,38.0,30.04,SW,232,0.0,0.0,60,0.00,,,0.00,weatherlink.com 1.10,2014-01-04 03:18:00,
2014-01-03 19:33:00,51.3,38.0,30.04,SW,232,0.0,0.0,61,0.00,,,0.00,weatherlink.com 1.10,2014-01-04 03:33:00,
2014-01-03 19:48:00,51.2,38.0,30.04,SW,233,0.0,0.0,60,0.00,,,0.00,weatherlink.com 1.10,2014-01-04 03:48:00,
2014-01-03 20:03:00,51.6,38.0,30.04,SW,232,0.0,0.0,60,0.00,,,0.00,weatherlink.com 1.10,2014-01-04 04:03:00,
2014-01-03 20:18:00,50.8,38.0,30.05,SW,232,0.0,0.0,61,0.00,,,0.00,weatherlink.com 1.10,2014-01-04 04:18:00,
2014-01-03 20:33:00,49.9,37.0,30.05,SW,232,0.0,0.0,62,0.00,,,0.00,weatherlink.com 1.10,2014-01-04 04:33:00,
2014-01-03 20:48:00,50.3,38.0,30.05,SW,232,0.0,0.0,62,0.00,,,0.00,weatherlink.com 1.10,2014-01-04 04:48:00,
2014-01-03 21:03:00,51.5,37.0,30.05,SW,233,0.0,0.0,59,0.00,,,0.00,weatherlink.com 1.10,2014-01-04 05:03:00,
2014-01-03 21:18:00,50.4,37.0,30.05,SW,233,0.0,0.0,60,0.00,,,0.00,weatherlink.com 1.10,2014-01-04 05:18:00,
2014-01-03 21:33:00,50.0,37.0,30.05,SW,233,0.0,1.0,62,0.00,,,0.00,weatherlink.com 1.10,2014-01-04 05:33:00,
2014-01-03 21:48:00,50.4,37.0,30.06,WSW,242,0.0,0.0,61,0.00,,,0.00,weatherlink.com 1.10,2014-01-04 05:48:00,
2014-01-03 22:03:00,50.2,37.0,30.06,WSW,239,0.0,1.0,61,0.00,,,0.00,weatherlink.com 1.10,2014-01-04 06:03:00,
2014-01-03 22:18:00,49.9,37.0,30.06,WSW,239,0.0,0.0,61,0.00,,,0.00,weatherlink.com 1.10,2014-01-04 06:18:00,
2014-01-03 22:33:00,50.8,37.0,30.06,SW,222,0.0,1.0,59,0.00,,,0.00,weatherlink.com 1.10,2014-01-04 06:33:00,
2014-01-03 22:48:00,50.7,36.0,30.06,East,99,0.0,1.0,58,0.00,,,0.00,weatherlink.com 1.10,2014-01-04 06:48:00,
2014-01-03 23:03:00,49.7,36.0,30.06,WSW,239,0.0,1.0,60,0.00,,,0.00,weatherlink.com 1.10,2014-01-04 07:03:00,
2014-01-03 23:18:00,48.4,36.0,30.07,SW,235,1.0,1.0,63,0.00,,,0.00,weatherlink.com 1.10,2014-01-04 07:18:00,
2014-01-03 23:33:00,49.3,36.0,30.07,SW,235,0.0,0.0,61,0.00,,,0.00,weatherlink.com 1.10,2014-01-04 07:33:00,
2014-01-03 23:48:00,50.3,36.0,30.07,NE,38,1.0,3.0,59,0.00,,,0.00,weatherlink.com 1.10,2014-01-04 07:48:00,